createdAt,value
2019-05-14T00:00:10.890Z,2.87
2019-05-14T00:02:32.051Z,1.95
2019-05-14T00:04:51.874Z,2.50
2019-05-14T00:07:12.122Z,1.98
2019-05-14T00:09:32.272Z,1.82
2019-05-14T00:11:52.182Z,1.60
2019-05-14T00:14:12.127Z,1.80
2019-05-14T00:16:34.074Z,1.55
2019-05-14T00:18:53.772Z,1.42
2019-05-14T00:21:13.653Z,1.10
2019-05-14T00:23:33.523Z,2.00
2019-05-14T00:25:53.734Z,1.62
2019-05-14T00:28:14.646Z,1.87
2019-05-14T00:30:34.731Z,1.60
2019-05-14T00:32:54.472Z,1.60
2019-05-14T00:35:14.758Z,1.98
2019-05-14T00:37:35.133Z,1.77
2019-05-14T00:39:55.862Z,2.02
2019-05-14T00:42:16.268Z,2.22
2019-05-14T00:44:36.242Z,2.10
2019-05-14T00:46:56.234Z,1.77
2019-05-14T00:49:16.382Z,1.60
2019-05-14T00:51:36.293Z,2.15
2019-05-14T00:53:56.669Z,1.87
2019-05-14T00:56:16.258Z,2.15
2019-05-14T00:58:36.258Z,2.22
2019-05-14T01:00:56.350Z,3.00
2019-05-14T01:03:15.969Z,2.47
2019-05-14T01:05:35.844Z,3.37
2019-05-14T01:07:55.542Z,3.15
2019-05-14T01:10:15.467Z,3.02
2019-05-14T01:12:35.254Z,3.02
2019-05-14T01:15:07.032Z,3.12
2019-05-14T01:17:17.188Z,2.70
2019-05-14T01:19:37.216Z,3.02
2019-05-14T01:21:57.051Z,3.15
2019-05-14T01:24:16.717Z,2.77
2019-05-14T01:26:36.581Z,3.10
2019-05-14T01:28:56.474Z,3.00
2019-05-14T01:31:16.627Z,3.17
2019-05-14T01:33:36.370Z,2.87
2019-05-14T01:35:56.545Z,3.08
2019-05-14T01:38:16.502Z,3.10
2019-05-14T01:40:36.345Z,3.22
2019-05-14T01:42:56.244Z,2.80
2019-05-14T01:45:25.123Z,2.83
2019-05-14T01:49:58.169Z,2.33
2019-05-14T01:52:18.063Z,3.10
2019-05-14T01:54:38.195Z,3.30
2019-05-14T01:57:01.901Z,2.50
2019-05-14T01:59:21.629Z,2.92
2019-05-14T02:01:41.899Z,2.98
2019-05-14T02:04:02.430Z,3.05
2019-05-14T02:06:22.630Z,3.00
2019-05-14T02:08:42.610Z,3.05
2019-05-14T02:11:02.736Z,2.65
2019-05-14T02:13:22.648Z,2.70
2019-05-14T02:15:43.168Z,2.90
2019-05-14T02:18:03.309Z,2.72
2019-05-14T02:20:23.624Z,2.98
2019-05-14T02:22:43.730Z,2.37
2019-05-14T02:25:06.105Z,2.92
2019-05-14T02:27:26.252Z,2.75
2019-05-14T02:29:45.842Z,3.02
2019-05-14T02:32:05.614Z,3.17
2019-05-14T02:34:25.762Z,2.90
2019-05-14T02:36:45.517Z,3.00
2019-05-14T02:39:09.781Z,3.75
2019-05-14T02:41:29.838Z,3.70
2019-05-14T02:43:50.226Z,3.37
2019-05-14T02:46:16.219Z,3.47
2019-05-14T02:48:32.166Z,3.33
2019-05-14T02:50:52.404Z,3.40
2019-05-14T02:53:13.010Z,3.33
2019-05-14T02:55:32.770Z,3.30
2019-05-14T02:57:52.968Z,4.15
2019-05-14T03:00:13.566Z,3.87
2019-05-14T03:02:34.059Z,3.90
2019-05-14T03:04:54.129Z,3.83
2019-05-14T03:07:13.896Z,3.70
2019-05-14T03:09:33.781Z,4.12
2019-05-14T03:11:53.409Z,3.77
2019-05-14T03:14:13.433Z,3.80
2019-05-14T03:16:35.843Z,4.30
2019-05-14T03:18:55.221Z,4.12
2019-05-14T03:21:15.278Z,4.20
2019-05-14T03:23:35.434Z,3.83
2019-05-14T03:25:55.422Z,3.60
2019-05-14T03:28:15.025Z,3.70
2019-05-14T03:30:34.948Z,3.92
2019-05-14T03:32:55.110Z,3.77
2019-05-14T03:35:15.178Z,4.03
2019-05-14T03:37:34.943Z,3.77
2019-05-14T03:39:55.015Z,4.03
2019-05-14T03:42:15.034Z,4.05
2019-05-14T03:44:35.157Z,3.70
2019-05-14T03:47:00.233Z,3.75
2019-05-14T03:51:39.694Z,4.87
2019-05-14T03:54:05.938Z,3.58
2019-05-14T03:56:21.735Z,4.25
2019-05-14T03:58:41.875Z,3.75
2019-05-14T04:01:02.169Z,4.20
2019-05-14T04:03:22.834Z,4.03
2019-05-14T04:05:43.438Z,4.37
2019-05-14T04:08:03.468Z,4.70
2019-05-14T04:10:23.965Z,4.67
2019-05-14T04:12:49.258Z,4.58
2019-05-14T04:15:09.791Z,5.05
2019-05-14T04:17:37.412Z,4.55
2019-05-14T04:19:59.962Z,4.60
2019-05-14T04:22:22.818Z,4.35
2019-05-14T04:24:49.409Z,4.30
2019-05-14T04:27:12.713Z,4.50
2019-05-14T04:29:30.901Z,4.42
2019-05-14T04:31:54.301Z,4.60
2019-05-14T04:34:15.122Z,4.50
2019-05-14T04:36:35.177Z,4.20
2019-05-14T04:38:55.594Z,4.55
2019-05-14T04:41:19.379Z,4.87
2019-05-14T04:43:40.053Z,4.78
2019-05-14T04:46:00.166Z,4.60
2019-05-14T04:48:31.323Z,4.03
2019-05-14T04:50:42.317Z,4.03
2019-05-14T04:53:02.740Z,4.45
2019-05-14T04:55:22.878Z,4.45
2019-05-14T04:57:43.206Z,5.15
2019-05-14T05:00:04.623Z,4.03
2019-05-14T05:02:24.845Z,4.17
2019-05-14T05:04:50.298Z,5.03
2019-05-14T05:07:09.895Z,4.67
2019-05-14T05:09:29.511Z,4.40
2019-05-14T05:11:50.166Z,4.20
2019-05-14T05:14:10.370Z,5.20
2019-05-14T05:16:30.373Z,4.55
2019-05-14T05:18:50.214Z,4.70
2019-05-14T05:21:10.315Z,4.95
2019-05-14T05:23:30.421Z,4.25
2019-05-14T05:25:50.639Z,4.30
2019-05-14T05:28:10.454Z,4.97
2019-05-14T05:30:30.606Z,4.60
2019-05-14T05:32:50.585Z,4.40
2019-05-14T05:35:10.691Z,4.65
2019-05-14T05:37:30.552Z,4.53
2019-05-14T05:39:50.482Z,4.80
2019-05-14T05:42:10.223Z,4.65
2019-05-14T05:44:29.847Z,4.65
2019-05-14T05:46:49.853Z,4.80
2019-05-14T05:49:09.775Z,4.72
2019-05-14T05:51:29.951Z,4.97
2019-05-14T05:53:50.445Z,5.33
2019-05-14T05:56:10.326Z,5.08
2019-05-14T05:58:30.369Z,5.15
2019-05-14T06:00:50.303Z,4.55
2019-05-14T06:03:11.266Z,4.90
2019-05-14T06:05:32.049Z,4.25
2019-05-14T06:07:52.176Z,4.95
2019-05-14T06:10:12.658Z,5.25
2019-05-14T06:12:32.489Z,5.65
2019-05-14T06:14:52.565Z,5.47
2019-05-14T06:17:12.817Z,5.50
2019-05-14T06:19:33.101Z,4.65
2019-05-14T06:21:53.222Z,5.75
2019-05-14T06:24:13.268Z,5.58
2019-05-14T06:26:33.154Z,5.60
2019-05-14T06:28:53.152Z,5.28
2019-05-14T06:31:14.175Z,5.75
2019-05-14T06:33:34.266Z,5.33
2019-05-14T06:35:54.281Z,5.22
2019-05-14T06:38:15.109Z,5.58
2019-05-14T06:40:35.236Z,5.35
2019-05-14T06:42:55.583Z,5.30
2019-05-14T06:45:18.520Z,5.30
2019-05-14T06:49:59.220Z,5.37
2019-05-14T06:52:19.540Z,5.83
2019-05-14T06:54:39.666Z,5.90
2019-05-14T06:56:59.598Z,5.67
2019-05-14T06:59:19.669Z,4.87
2019-05-14T07:01:40.143Z,5.10
2019-05-14T07:04:00.041Z,5.65
2019-05-14T07:06:20.032Z,4.95
2019-05-14T07:08:40.138Z,5.72
2019-05-14T07:11:00.273Z,4.92
2019-05-14T07:13:20.453Z,5.35
2019-05-14T07:15:40.289Z,6.28
2019-05-14T07:18:00.253Z,6.03
2019-05-14T07:20:20.130Z,5.47
2019-05-14T07:22:40.097Z,5.40
2019-05-14T07:27:19.825Z,5.60
2019-05-14T07:55:22.018Z,4.17
2019-05-14T07:57:42.598Z,4.47
2019-05-14T08:00:08.304Z,4.12
2019-05-14T08:02:28.954Z,4.37
2019-05-14T08:04:49.673Z,4.70
2019-05-14T08:07:09.783Z,3.75
2019-05-14T08:09:29.780Z,4.10
2019-05-14T08:11:49.801Z,4.15
2019-05-14T08:56:12.309Z,2.10
2019-05-14T12:02:53.489Z,1.30
2019-05-14T12:47:12.975Z,1.20
2019-05-14T17:11:33.555Z,0.90
2019-05-14T17:16:13.595Z,0.90
2019-05-14T17:18:33.836Z,0.85
2019-05-14T17:20:53.666Z,1.00
2019-05-14T17:23:13.721Z,1.10
2019-05-14T17:25:34.118Z,0.90
2019-05-14T17:27:54.410Z,0.90
2019-05-14T17:30:14.821Z,1.00
2019-05-14T17:39:34.614Z,1.00
2019-05-14T18:14:33.142Z,1.00
2019-05-14T18:16:53.628Z,1.00
2019-05-14T18:19:14.097Z,1.00
2019-05-14T18:21:34.450Z,1.10
2019-05-14T18:23:54.827Z,0.90
2019-05-14T18:28:34.521Z,0.80
2019-05-14T18:30:55.018Z,0.90
2019-05-14T18:33:14.590Z,1.00
2019-05-14T18:35:34.305Z,0.90
2019-05-14T18:37:54.572Z,0.97
2019-05-14T18:40:14.711Z,0.90
2019-05-14T18:44:54.397Z,1.00
2019-05-14T18:49:36.079Z,1.00
2019-05-14T19:38:42.597Z,0.73
2019-05-14T19:48:03.705Z,0.80
2019-05-14T19:50:24.436Z,0.95
2019-05-14T19:52:44.427Z,0.90
2019-05-14T19:55:05.062Z,0.80
2019-05-14T19:57:25.397Z,1.07
2019-05-14T19:59:45.582Z,1.07
2019-05-14T20:02:05.830Z,1.00
2019-05-14T20:04:26.187Z,1.10
2019-05-14T20:06:46.361Z,1.12
2019-05-14T20:09:06.391Z,0.93
2019-05-14T20:11:28.764Z,1.02
2019-05-14T20:13:49.026Z,0.80
2019-05-14T20:16:09.214Z,1.00
2019-05-14T20:18:29.152Z,0.88
2019-05-14T20:20:49.431Z,1.20
2019-05-14T20:23:09.358Z,0.95
2019-05-14T20:25:29.126Z,1.40
2019-05-14T20:27:49.013Z,1.07
2019-05-14T20:30:09.402Z,1.12
2019-05-14T20:32:29.449Z,1.10
2019-05-14T20:34:49.339Z,0.88
2019-05-14T20:37:09.208Z,1.10
2019-05-14T20:39:31.629Z,1.15
2019-05-14T20:41:51.289Z,1.05
2019-05-14T20:44:12.394Z,1.30
2019-05-14T20:46:32.301Z,1.17
2019-05-14T20:48:52.650Z,1.10
2019-05-14T20:51:12.410Z,1.20
2019-05-14T20:53:32.208Z,0.90
2019-05-14T20:55:52.026Z,0.98
2019-05-14T20:58:11.824Z,0.70
2019-05-14T21:00:31.861Z,0.70
2019-05-14T21:02:51.555Z,1.10
2019-05-14T21:05:13.780Z,1.02
2019-05-14T21:07:33.681Z,1.02
2019-05-14T21:09:53.736Z,0.80
2019-05-14T21:12:13.680Z,0.82
2019-05-14T21:14:33.385Z,0.75
2019-05-14T21:16:53.862Z,0.70
2019-05-14T21:19:13.696Z,0.75
2019-05-14T21:21:38.355Z,0.95
2019-05-14T21:23:58.780Z,1.10
2019-05-14T21:26:19.409Z,1.00
2019-05-14T21:28:40.013Z,0.80
2019-05-14T21:31:01.749Z,1.02
2019-05-14T21:33:21.612Z,0.93
2019-05-14T21:35:41.727Z,1.05
2019-05-14T21:38:01.891Z,1.10
2019-05-14T21:40:21.765Z,1.02
2019-05-14T21:42:41.689Z,1.30
2019-05-14T21:45:02.034Z,0.88
2019-05-14T21:47:21.831Z,1.00
2019-05-14T21:49:41.663Z,1.00
2019-05-14T21:52:01.877Z,0.90
2019-05-14T21:54:21.873Z,0.90
2019-05-14T21:56:41.998Z,1.10
2019-05-14T21:59:02.734Z,1.05
2019-05-14T22:01:23.031Z,1.02
2019-05-14T22:03:43.165Z,1.10
2019-05-14T22:06:03.322Z,1.12
2019-05-14T22:08:23.584Z,1.20
2019-05-14T22:10:43.414Z,1.00
2019-05-14T22:13:03.515Z,1.10
2019-05-14T22:15:23.838Z,1.00
2019-05-14T22:17:44.216Z,1.00
2019-05-14T22:20:08.114Z,1.17
2019-05-14T22:22:30.842Z,1.00
2019-05-14T22:24:50.806Z,1.15
2019-05-14T22:27:11.214Z,1.20
2019-05-14T22:29:31.320Z,1.20
2019-05-14T22:31:51.400Z,1.00
2019-05-14T22:34:11.565Z,1.20
2019-05-14T22:36:31.456Z,1.37
2019-05-14T22:38:51.268Z,1.07
2019-05-14T22:41:11.558Z,1.30
2019-05-14T22:43:31.593Z,1.05
2019-05-14T22:45:51.540Z,1.10
2019-05-14T22:48:12.677Z,1.10
2019-05-14T22:50:32.467Z,1.37
2019-05-14T22:52:52.509Z,1.10
2019-05-14T22:55:12.165Z,1.40
2019-05-14T22:57:32.017Z,1.40
2019-05-14T22:59:51.704Z,1.42
2019-05-14T23:02:12.018Z,1.10
2019-05-14T23:04:31.721Z,1.60
2019-05-14T23:06:52.247Z,1.40
2019-05-14T23:09:12.426Z,1.50
2019-05-14T23:11:32.138Z,1.55
2019-05-14T23:13:52.113Z,1.72
2019-05-14T23:16:12.457Z,1.42
2019-05-14T23:18:33.148Z,1.30
2019-05-14T23:20:53.208Z,1.40
2019-05-14T23:23:13.153Z,1.25
2019-05-14T23:25:32.780Z,1.25
2019-05-14T23:27:53.094Z,1.20
2019-05-14T23:30:13.045Z,1.25
2019-05-14T23:32:33.454Z,1.37
2019-05-14T23:34:53.364Z,1.20
2019-05-14T23:37:13.198Z,1.30
2019-05-14T23:39:33.152Z,1.40
2019-05-14T23:41:53.660Z,1.12
2019-05-14T23:44:14.021Z,1.10
2019-05-14T23:46:33.802Z,1.10
2019-05-14T23:48:53.798Z,1.10
2019-05-14T23:51:13.746Z,1.10
2019-05-14T23:53:33.769Z,1.22
2019-05-14T23:55:53.985Z,1.10
2019-05-14T23:58:14.422Z,1.00
